Date,TemperatureHighF,TemperatureAvgF,TemperatureLowF,DewpointHighF,DewpointAvgF,DewpointLowF,HumidityHigh,HumidityAvg,HumidityLow,PressureMaxIn,PressureMinIn,WindSpeedMaxMPH,WindSpeedAvgMPH,GustSpeedMaxMPH,PrecipitationSumIn
2013-4-1,83.4,68.7,56.6,63.3,58.2,53.8,95,72,42,29.95,29.88,5,1,16,0.00
2013-4-2,86.1,70.3,55.1,62.0,50.8,40.0,97,59,20,30.04,29.94,3,0,9,0.00
2013-4-3,85.3,68.9,57.6,64.3,59.8,50.8,96,75,42,30.04,29.91,3,0,8,0.33
2013-4-4,74.6,69.7,65.3,69.2,65.4,61.3,97,87,65,29.95,29.81,3,0,11,0.01
2013-4-5,73.9,66.3,56.5,64.9,60.6,52.4,94,83,62,29.97,29.74,3,1,10,0.00
2013-4-6,76.3,63.1,51.3,56.2,52.4,48.9,92,70,45,30.10,29.97,3,1,10,0.00
2013-4-7,83.8,67.9,54.5,61.2,54.9,50.1,96,68,34,30.12,30.01,2,0,4,0.00
2013-4-8,87.0,71.6,56.0,63.3,55.4,48.7,96,63,27,30.09,29.99,2,0,6,0.00
2013-4-9,88.0,73.2,60.7,67.2,59.7,53.5,97,67,34,30.12,30.02,2,0,4,0.00
2013-4-10,88.2,73.4,57.0,67.4,59.6,55.3,96,66,34,30.07,29.92,2,0,4,0.00
2013-4-11,91.6,79.7,72.3,70.9,67.8,64.2,87,69,41,29.93,29.75,2,0,5,0.00
2013-4-12,83.8,76.3,71.1,71.9,69.7,66.8,93,81,59,29.85,29.73,4,0,7,0.00
2013-4-13,88.4,75.4,67.1,67.5,56.0,40.6,95,58,21,29.94,29.82,2,0,4,0.00
2013-4-14,88.0,74.0,63.2,71.1,64.1,53.4,95,73,52,29.93,29.78,2,0,7,0.06
2013-4-15,89.5,75.6,63.4,65.0,62.5,59.8,96,68,39,30.04,29.82,2,0,4,0.00
2013-4-16,74.2,70.0,66.0,64.9,64.4,63.6,94,83,71,30.11,30.01,0,0,1,0.00
2013-4-17,84.3,70.4,66.4,67.6,65.6,61.3,97,86,46,30.11,30.02,2,0,4,0.00
2013-4-19,88.4,86.8,85.3,70.4,69.2,68.3,60,56,52,29.95,29.89,3,2,12,0.50
2013-4-20,56.3,55.2,54.4,54.3,53.7,53.0,96,95,92,30.13,30.02,1,0,3,0.68
2013-4-21,72.8,64.2,56.2,65.6,59.6,53.3,95,85,76,30.11,30.00,3,0,5,0.18
2013-4-23,79.6,70.7,61.5,58.0,56.2,52.8,85,62,41,30.07,30.00,2,1,6,0.00
2013-4-24,85.7,70.5,53.6,61.8,56.0,47.4,97,66,27,30.09,30.01,2,0,4,0.00
2013-4-25,88.6,73.7,59.5,64.7,60.3,55.6,96,67,33,30.15,30.05,2,0,4,0.00
2013-4-26,87.0,74.6,62.0,65.2,61.8,57.2,95,68,38,30.19,30.09,3,0,8,0.00
2013-4-27,86.5,73.9,62.4,66.6,61.0,55.4,95,68,36,30.19,30.04,3,0,4,0.00
2013-4-28,84.9,73.4,61.3,66.5,62.2,59.9,96,70,45,30.09,29.92,2,0,6,0.00
2013-4-29,85.1,74.2,66.0,66.2,63.0,58.5,88,70,45,29.97,29.84,2,0,4,0.00
2013-4-30,88.6,72.5,66.1,69.5,64.8,57.7,96,81,36,29.97,29.84,3,0,6,1.21